sensor_id;sensor_type;location;lat;lon;timestamp;P1;durP1;ratioP1;P2;durP2;ratioP2
46399;SDS011;32104;50.838;4.388;2022-09-01T00:02:19;2.78;;;1.20;;
46399;SDS011;32104;50.838;4.388;2022-09-01T00:04:45;4.70;;;1.33;;
46399;SDS011;32104;50.838;4.388;2022-09-01T00:07:11;2.13;;;1.23;;
46399;SDS011;32104;50.838;4.388;2022-09-01T00:09:38;1.85;;;1.20;;
46399;SDS011;32104;50.838;4.388;2022-09-01T00:12:05;4.50;;;1.30;;
46399;SDS011;32104;50.838;4.388;2022-09-01T00:14:34;2.97;;;0.98;;
46399;SDS011;32104;50.838;4.388;2022-09-01T00:17:04;2.38;;;1.10;;
46399;SDS011;32104;50.838;4.388;2022-09-01T00:19:33;2.97;;;1.40;;
46399;SDS011;32104;50.838;4.388;2022-09-01T00:22:00;2.85;;;1.20;;
46399;SDS011;32104;50.838;4.388;2022-09-01T00:24:27;2.20;;;1.00;;
46399;SDS011;32104;50.838;4.388;2022-09-01T00:26:54;2.42;;;1.08;;
46399;SDS011;32104;50.838;4.388;2022-09-01T00:29:21;2.47;;;0.75;;
46399;SDS011;32104;50.838;4.388;2022-09-01T00:31:48;6.03;;;1.10;;
46399;SDS011;32104;50.838;4.388;2022-09-01T00:34:15;3.08;;;0.98;;
46399;SDS011;32104;50.838;4.388;2022-09-01T00:36:41;1.85;;;1.33;;
46399;SDS011;32104;50.838;4.388;2022-09-01T00:39:08;4.95;;;0.98;;
46399;SDS011;32104;50.838;4.388;2022-09-01T00:41:36;4.30;;;0.82;;
46399;SDS011;32104;50.838;4.388;2022-09-01T00:44:11;5.50;;;1.00;;
46399;SDS011;32104;50.838;4.388;2022-09-01T00:46:40;3.38;;;1.10;;
46399;SDS011;32104;50.838;4.388;2022-09-01T00:49:19;5.50;;;1.10;;
46399;SDS011;32104;50.838;4.388;2022-09-01T00:51:48;2.77;;;1.10;;
46399;SDS011;32104;50.838;4.388;2022-09-01T00:54:25;4.05;;;1.15;;
46399;SDS011;32104;50.838;4.388;2022-09-01T00:56:54;3.67;;;1.27;;
46399;SDS011;32104;50.838;4.388;2022-09-01T00:59:21;4.65;;;1.42;;
46399;SDS011;32104;50.838;4.388;2022-09-01T01:01:48;4.78;;;1.20;;
46399;SDS011;32104;50.838;4.388;2022-09-01T01:04:15;2.40;;;1.10;;
46399;SDS011;32104;50.838;4.388;2022-09-01T01:06:42;4.22;;;1.05;;
46399;SDS011;32104;50.838;4.388;2022-09-01T01:09:14;4.22;;;1.33;;
46399;SDS011;32104;50.838;4.388;2022-09-01T01:11:44;2.80;;;1.20;;
46399;SDS011;32104;50.838;4.388;2022-09-01T01:14:11;6.28;;;1.67;;
46399;SDS011;32104;50.838;4.388;2022-09-01T01:16:40;5.40;;;1.13;;
46399;SDS011;32104;50.838;4.388;2022-09-01T01:19:22;4.32;;;1.38;;
46399;SDS011;32104;50.838;4.388;2022-09-01T01:22:16;4.13;;;1.30;;
46399;SDS011;32104;50.838;4.388;2022-09-01T01:25:07;3.40;;;1.38;;
46399;SDS011;32104;50.838;4.388;2022-09-01T01:27:36;5.78;;;1.42;;
46399;SDS011;32104;50.838;4.388;2022-09-01T01:30:07;4.35;;;1.45;;
46399;SDS011;32104;50.838;4.388;2022-09-01T01:35:04;3.97;;;1.60;;
46399;SDS011;32104;50.838;4.388;2022-09-01T01:37:33;6.15;;;1.45;;
46399;SDS011;32104;50.838;4.388;2022-09-01T01:40:02;4.90;;;1.15;;
46399;SDS011;32104;50.838;4.388;2022-09-01T01:42:31;3.45;;;1.17;;
46399;SDS011;32104;50.838;4.388;2022-09-01T01:44:57;2.80;;;1.42;;
46399;SDS011;32104;50.838;4.388;2022-09-01T01:47:23;6.22;;;1.48;;
46399;SDS011;32104;50.838;4.388;2022-09-01T01:49:49;3.42;;;1.40;;
46399;SDS011;32104;50.838;4.388;2022-09-01T01:52:15;6.25;;;1.27;;
46399;SDS011;32104;50.838;4.388;2022-09-01T01:54:42;8.18;;;1.83;;
46399;SDS011;32104;50.838;4.388;2022-09-01T01:57:10;3.30;;;1.30;;
46399;SDS011;32104;50.838;4.388;2022-09-01T01:59:41;3.80;;;1.15;;
46399;SDS011;32104;50.838;4.388;2022-09-01T02:02:07;5.75;;;1.38;;
46399;SDS011;32104;50.838;4.388;2022-09-01T02:04:37;2.70;;;1.23;;
46399;SDS011;32104;50.838;4.388;2022-09-01T02:07:07;5.22;;;1.73;;
46399;SDS011;32104;50.838;4.388;2022-09-01T02:09:35;5.75;;;1.40;;
46399;SDS011;32104;50.838;4.388;2022-09-01T02:12:04;3.58;;;1.50;;
46399;SDS011;32104;50.838;4.388;2022-09-01T02:14:32;5.47;;;1.50;;
46399;SDS011;32104;50.838;4.388;2022-09-01T02:16:58;3.83;;;1.30;;
46399;SDS011;32104;50.838;4.388;2022-09-01T02:19:32;5.22;;;1.30;;
46399;SDS011;32104;50.838;4.388;2022-09-01T02:22:02;5.13;;;1.40;;
46399;SDS011;32104;50.838;4.388;2022-09-01T02:24:28;5.50;;;1.48;;
46399;SDS011;32104;50.838;4.388;2022-09-01T02:26:54;4.80;;;1.50;;
46399;SDS011;32104;50.838;4.388;2022-09-01T02:29:24;5.47;;;1.75;;
46399;SDS011;32104;50.838;4.388;2022-09-01T02:31:52;5.73;;;1.00;;
46399;SDS011;32104;50.838;4.388;2022-09-01T02:34:20;4.47;;;1.40;;
46399;SDS011;32104;50.838;4.388;2022-09-01T02:36:49;3.22;;;1.40;;
46399;SDS011;32104;50.838;4.388;2022-09-01T02:39:17;5.43;;;1.50;;
46399;SDS011;32104;50.838;4.388;2022-09-01T02:42:04;6.25;;;2.53;;
46399;SDS011;32104;50.838;4.388;2022-09-01T02:44:32;3.22;;;1.30;;
46399;SDS011;32104;50.838;4.388;2022-09-01T02:47:00;3.22;;;1.40;;
46399;SDS011;32104;50.838;4.388;2022-09-01T02:49:25;3.97;;;1.30;;
46399;SDS011;32104;50.838;4.388;2022-09-01T02:51:54;7.63;;;1.52;;
46399;SDS011;32104;50.838;4.388;2022-09-01T02:54:23;5.20;;;1.50;;
46399;SDS011;32104;50.838;4.388;2022-09-01T02:56:51;4.95;;;1.40;;
46399;SDS011;32104;50.838;4.388;2022-09-01T02:59:19;4.72;;;1.73;;
46399;SDS011;32104;50.838;4.388;2022-09-01T03:01:47;6.40;;;1.63;;
46399;SDS011;32104;50.838;4.388;2022-09-01T03:04:14;7.68;;;1.88;;
46399;SDS011;32104;50.838;4.388;2022-09-01T03:06:41;5.93;;;1.58;;
46399;SDS011;32104;50.838;4.388;2022-09-01T03:09:09;7.10;;;2.42;;
46399;SDS011;32104;50.838;4.388;2022-09-01T03:11:39;5.80;;;1.63;;
46399;SDS011;32104;50.838;4.388;2022-09-01T03:14:06;4.47;;;1.92;;
46399;SDS011;32104;50.838;4.388;2022-09-01T03:16:35;5.75;;;1.95;;
46399;SDS011;32104;50.838;4.388;2022-09-01T03:19:01;3.63;;;1.50;;
46399;SDS011;32104;50.838;4.388;2022-09-01T03:21:28;8.63;;;1.52;;
46399;SDS011;32104;50.838;4.388;2022-09-01T03:23:56;9.88;;;2.20;;
46399;SDS011;32104;50.838;4.388;2022-09-01T03:26:26;5.88;;;1.52;;
46399;SDS011;32104;50.838;4.388;2022-09-01T03:28:52;7.43;;;1.88;;
46399;SDS011;32104;50.838;4.388;2022-09-01T03:31:18;8.27;;;2.20;;
46399;SDS011;32104;50.838;4.388;2022-09-01T03:33:45;5.28;;;1.88;;
46399;SDS011;32104;50.838;4.388;2022-09-01T03:36:11;6.45;;;1.60;;
46399;SDS011;32104;50.838;4.388;2022-09-01T03:38:43;7.07;;;1.73;;
46399;SDS011;32104;50.838;4.388;2022-09-01T03:41:13;7.10;;;1.40;;
46399;SDS011;32104;50.838;4.388;2022-09-01T03:43:42;13.60;;;1.92;;
46399;SDS011;32104;50.838;4.388;2022-09-01T03:46:09;6.60;;;1.85;;
46399;SDS011;32104;50.838;4.388;2022-09-01T03:48:40;6.05;;;1.70;;
46399;SDS011;32104;50.838;4.388;2022-09-01T03:51:09;7.90;;;1.95;;
46399;SDS011;32104;50.838;4.388;2022-09-01T03:53:36;6.38;;;1.73;;
46399;SDS011;32104;50.838;4.388;2022-09-01T03:56:03;7.55;;;1.73;;
46399;SDS011;32104;50.838;4.388;2022-09-01T03:58:30;6.53;;;2.05;;
46399;SDS011;32104;50.838;4.388;2022-09-01T04:00:57;5.50;;;1.77;;
46399;SDS011;32104;50.838;4.388;2022-09-01T04:03:26;7.00;;;2.13;;
46399;SDS011;32104;50.838;4.388;2022-09-01T04:05:56;7.15;;;1.55;;
46399;SDS011;32104;50.838;4.388;2022-09-01T04:08:23;4.93;;;2.25;;
46399;SDS011;32104;50.838;4.388;2022-09-01T04:10:56;5.28;;;1.95;;
46399;SDS011;32104;50.838;4.388;2022-09-01T04:13:34;8.80;;;2.00;;
46399;SDS011;32104;50.838;4.388;2022-09-01T04:16:02;8.05;;;2.05;;
46399;SDS011;32104;50.838;4.388;2022-09-01T04:18:54;8.68;;;1.95;;
46399;SDS011;32104;50.838;4.388;2022-09-01T04:21:20;5.60;;;1.90;;
46399;SDS011;32104;50.838;4.388;2022-09-01T04:23:46;16.13;;;2.33;;
46399;SDS011;32104;50.838;4.388;2022-09-01T04:26:13;3.88;;;1.83;;
46399;SDS011;32104;50.838;4.388;2022-09-01T04:28:45;5.22;;;1.80;;
46399;SDS011;32104;50.838;4.388;2022-09-01T04:33:42;5.70;;;2.10;;
46399;SDS011;32104;50.838;4.388;2022-09-01T04:36:29;9.20;;;2.00;;
46399;SDS011;32104;50.838;4.388;2022-09-01T04:38:57;6.35;;;2.15;;
46399;SDS011;32104;50.838;4.388;2022-09-01T04:41:27;6.05;;;1.67;;
46399;SDS011;32104;50.838;4.388;2022-09-01T04:43:56;5.05;;;1.45;;
46399;SDS011;32104;50.838;4.388;2022-09-01T04:46:23;9.43;;;2.30;;
46399;SDS011;32104;50.838;4.388;2022-09-01T04:48:52;11.35;;;2.22;;
46399;SDS011;32104;50.838;4.388;2022-09-01T04:51:19;11.05;;;1.73;;
46399;SDS011;32104;50.838;4.388;2022-09-01T04:53:46;5.65;;;1.40;;
46399;SDS011;32104;50.838;4.388;2022-09-01T04:58:50;11.35;;;2.72;;
46399;SDS011;32104;50.838;4.388;2022-09-01T05:01:20;7.90;;;1.52;;
46399;SDS011;32104;50.838;4.388;2022-09-01T05:03:48;8.00;;;2.33;;
46399;SDS011;32104;50.838;4.388;2022-09-01T05:06:22;6.40;;;2.05;;
46399;SDS011;32104;50.838;4.388;2022-09-01T05:08:48;2.97;;;1.48;;
46399;SDS011;32104;50.838;4.388;2022-09-01T05:11:14;6.40;;;1.88;;
46399;SDS011;32104;50.838;4.388;2022-09-01T05:13:44;12.13;;;1.88;;
46399;SDS011;32104;50.838;4.388;2022-09-01T05:16:12;7.17;;;2.37;;
46399;SDS011;32104;50.838;4.388;2022-09-01T05:18:44;6.85;;;2.83;;
46399;SDS011;32104;50.838;4.388;2022-09-01T05:21:13;12.15;;;2.40;;
46399;SDS011;32104;50.838;4.388;2022-09-01T05:23:42;12.75;;;2.38;;
46399;SDS011;32104;50.838;4.388;2022-09-01T05:26:14;9.25;;;2.20;;
46399;SDS011;32104;50.838;4.388;2022-09-01T05:28:45;10.30;;;1.92;;
46399;SDS011;32104;50.838;4.388;2022-09-01T05:31:12;7.68;;;1.80;;
46399;SDS011;32104;50.838;4.388;2022-09-01T05:33:39;5.70;;;1.75;;
46399;SDS011;32104;50.838;4.388;2022-09-01T05:36:14;5.55;;;2.20;;
46399;SDS011;32104;50.838;4.388;2022-09-01T05:38:42;4.75;;;1.55;;
46399;SDS011;32104;50.838;4.388;2022-09-01T05:41:09;4.20;;;1.50;;
46399;SDS011;32104;50.838;4.388;2022-09-01T05:43:39;10.88;;;1.95;;
46399;SDS011;32104;50.838;4.388;2022-09-01T05:46:14;6.78;;;2.08;;
46399;SDS011;32104;50.838;4.388;2022-09-01T05:48:44;3.83;;;1.50;;
46399;SDS011;32104;50.838;4.388;2022-09-01T05:51:15;7.13;;;1.65;;
46399;SDS011;32104;50.838;4.388;2022-09-01T05:53:48;10.50;;;2.33;;
46399;SDS011;32104;50.838;4.388;2022-09-01T05:56:17;8.48;;;1.83;;
46399;SDS011;32104;50.838;4.388;2022-09-01T05:58:48;13.55;;;1.92;;
46399;SDS011;32104;50.838;4.388;2022-09-01T06:01:24;8.00;;;2.25;;
46399;SDS011;32104;50.838;4.388;2022-09-01T06:03:51;5.25;;;2.47;;
46399;SDS011;32104;50.838;4.388;2022-09-01T06:06:20;11.45;;;1.55;;
46399;SDS011;32104;50.838;4.388;2022-09-01T06:08:47;6.25;;;1.90;;
46399;SDS011;32104;50.838;4.388;2022-09-01T06:11:17;7.95;;;1.75;;
46399;SDS011;32104;50.838;4.388;2022-09-01T06:13:45;5.85;;;1.70;;
46399;SDS011;32104;50.838;4.388;2022-09-01T06:16:14;5.47;;;1.63;;
46399;SDS011;32104;50.838;4.388;2022-09-01T06:18:40;11.07;;;1.90;;
46399;SDS011;32104;50.838;4.388;2022-09-01T06:21:08;3.28;;;1.50;;
46399;SDS011;32104;50.838;4.388;2022-09-01T06:23:36;4.05;;;1.67;;
46399;SDS011;32104;50.838;4.388;2022-09-01T06:26:02;5.40;;;1.85;;
46399;SDS011;32104;50.838;4.388;2022-09-01T06:28:29;10.48;;;1.60;;
46399;SDS011;32104;50.838;4.388;2022-09-01T06:30:55;6.78;;;1.80;;
46399;SDS011;32104;50.838;4.388;2022-09-01T06:33:22;8.50;;;2.20;;
46399;SDS011;32104;50.838;4.388;2022-09-01T06:35:49;6.77;;;1.70;;
46399;SDS011;32104;50.838;4.388;2022-09-01T06:41:50;12.48;;;2.17;;
46399;SDS011;32104;50.838;4.388;2022-09-01T06:44:20;6.40;;;1.50;;
46399;SDS011;32104;50.838;4.388;2022-09-01T06:46:52;6.35;;;1.50;;
46399;SDS011;32104;50.838;4.388;2022-09-01T06:51:57;10.32;;;2.25;;
46399;SDS011;32104;50.838;4.388;2022-09-01T06:54:24;4.70;;;2.03;;
46399;SDS011;32104;50.838;4.388;2022-09-01T06:56:49;10.52;;;1.92;;
46399;SDS011;32104;50.838;4.388;2022-09-01T06:59:17;6.35;;;1.90;;
46399;SDS011;32104;50.838;4.388;2022-09-01T07:01:44;4.03;;;1.42;;
46399;SDS011;32104;50.838;4.388;2022-09-01T07:04:12;6.18;;;1.90;;
46399;SDS011;32104;50.838;4.388;2022-09-01T07:06:41;3.00;;;1.63;;
46399;SDS011;32104;50.838;4.388;2022-09-01T07:09:07;3.13;;;1.40;;
46399;SDS011;32104;50.838;4.388;2022-09-01T07:11:33;5.07;;;1.88;;
46399;SDS011;32104;50.838;4.388;2022-09-01T07:14:01;2.70;;;1.20;;
46399;SDS011;32104;50.838;4.388;2022-09-01T07:18:59;6.25;;;1.35;;
46399;SDS011;32104;50.838;4.388;2022-09-01T07:21:27;6.30;;;1.40;;
46399;SDS011;32104;50.838;4.388;2022-09-01T07:23:56;8.63;;;1.30;;
46399;SDS011;32104;50.838;4.388;2022-09-01T07:26:23;5.38;;;1.15;;
46399;SDS011;32104;50.838;4.388;2022-09-01T07:28:49;4.65;;;1.13;;
46399;SDS011;32104;50.838;4.388;2022-09-01T07:31:20;5.78;;;1.30;;
46399;SDS011;32104;50.838;4.388;2022-09-01T07:33:59;3.92;;;1.10;;
46399;SDS011;32104;50.838;4.388;2022-09-01T07:36:28;3.53;;;1.40;;
46399;SDS011;32104;50.838;4.388;2022-09-01T07:38:55;3.25;;;1.27;;
46399;SDS011;32104;50.838;4.388;2022-09-01T07:41:21;3.75;;;1.40;;
46399;SDS011;32104;50.838;4.388;2022-09-01T07:43:49;2.10;;;1.30;;
46399;SDS011;32104;50.838;4.388;2022-09-01T07:46:17;3.47;;;1.23;;
46399;SDS011;32104;50.838;4.388;2022-09-01T07:48:44;2.13;;;1.15;;
46399;SDS011;32104;50.838;4.388;2022-09-01T07:51:11;2.15;;;1.20;;
46399;SDS011;32104;50.838;4.388;2022-09-01T07:53:42;7.53;;;1.15;;
46399;SDS011;32104;50.838;4.388;2022-09-01T07:56:09;4.07;;;1.30;;
46399;SDS011;32104;50.838;4.388;2022-09-01T07:58:37;3.33;;;1.25;;
46399;SDS011;32104;50.838;4.388;2022-09-01T08:01:15;5.10;;;1.10;;
46399;SDS011;32104;50.838;4.388;2022-09-01T08:03:43;2.63;;;1.33;;
46399;SDS011;32104;50.838;4.388;2022-09-01T08:06:16;3.90;;;1.10;;
46399;SDS011;32104;50.838;4.388;2022-09-01T08:08:46;4.72;;;1.30;;
46399;SDS011;32104;50.838;4.388;2022-09-01T08:11:16;3.25;;;1.17;;
46399;SDS011;32104;50.838;4.388;2022-09-01T08:13:45;5.00;;;1.20;;
46399;SDS011;32104;50.838;4.388;2022-09-01T08:16:16;2.00;;;0.85;;
46399;SDS011;32104;50.838;4.388;2022-09-01T08:18:42;2.33;;;0.90;;
46399;SDS011;32104;50.838;4.388;2022-09-01T08:21:09;3.22;;;1.33;;
46399;SDS011;32104;50.838;4.388;2022-09-01T08:23:38;2.35;;;1.27;;
46399;SDS011;32104;50.838;4.388;2022-09-01T08:26:10;1.58;;;0.90;;
46399;SDS011;32104;50.838;4.388;2022-09-01T08:28:38;1.80;;;0.93;;
46399;SDS011;32104;50.838;4.388;2022-09-01T08:31:12;3.88;;;0.88;;
46399;SDS011;32104;50.838;4.388;2022-09-01T08:33:41;2.78;;;0.90;;
46399;SDS011;32104;50.838;4.388;2022-09-01T08:36:09;5.47;;;0.90;;
46399;SDS011;32104;50.838;4.388;2022-09-01T08:38:37;3.67;;;0.98;;
46399;SDS011;32104;50.838;4.388;2022-09-01T08:41:05;3.15;;;1.00;;
46399;SDS011;32104;50.838;4.388;2022-09-01T08:43:51;4.18;;;0.82;;
46399;SDS011;32104;50.838;4.388;2022-09-01T08:46:37;2.30;;;0.80;;
46399;SDS011;32104;50.838;4.388;2022-09-01T08:49:07;4.70;;;0.90;;
46399;SDS011;32104;50.838;4.388;2022-09-01T08:54:38;4.57;;;0.70;;
46399;SDS011;32104;50.838;4.388;2022-09-01T08:57:15;1.00;;;0.77;;
46399;SDS011;32104;50.838;4.388;2022-09-01T08:59:47;3.80;;;0.60;;
46399;SDS011;32104;50.838;4.388;2022-09-01T09:13:21;1.88;;;0.70;;
46399;SDS011;32104;50.838;4.388;2022-09-01T09:16:23;2.70;;;0.70;;
46399;SDS011;32104;50.838;4.388;2022-09-01T09:19:07;2.33;;;0.65;;
46399;SDS011;32104;50.838;4.388;2022-09-01T09:21:41;0.60;;;0.60;;
46399;SDS011;32104;50.838;4.388;2022-09-01T09:24:09;1.30;;;0.65;;
46399;SDS011;32104;50.838;4.388;2022-09-01T09:27:15;3.13;;;0.70;;
46399;SDS011;32104;50.838;4.388;2022-09-01T09:29:50;0.80;;;0.70;;
46399;SDS011;32104;50.838;4.388;2022-09-01T09:32:20;1.98;;;0.60;;
46399;SDS011;32104;50.838;4.388;2022-09-01T09:34:47;5.47;;;0.80;;
46399;SDS011;32104;50.838;4.388;2022-09-01T09:37:27;3.63;;;0.90;;
46399;SDS011;32104;50.838;4.388;2022-09-01T09:42:35;0.95;;;0.80;;
46399;SDS011;32104;50.838;4.388;2022-09-01T09:45:04;1.08;;;0.70;;
46399;SDS011;32104;50.838;4.388;2022-09-01T09:47:41;1.02;;;0.80;;
46399;SDS011;32104;50.838;4.388;2022-09-01T09:58:20;1.30;;;0.60;;
46399;SDS011;32104;50.838;4.388;2022-09-01T10:00:57;2.10;;;0.60;;
46399;SDS011;32104;50.838;4.388;2022-09-01T10:03:35;0.50;;;0.50;;
46399;SDS011;32104;50.838;4.388;2022-09-01T10:06:15;0.40;;;0.40;;
46399;SDS011;32104;50.838;4.388;2022-09-01T10:08:57;1.15;;;0.40;;
46399;SDS011;32104;50.838;4.388;2022-09-01T10:11:41;0.65;;;0.40;;
46399;SDS011;32104;50.838;4.388;2022-09-01T10:14:24;2.00;;;0.30;;
46399;SDS011;32104;50.838;4.388;2022-09-01T10:16:57;1.88;;;0.40;;
46399;SDS011;32104;50.838;4.388;2022-09-01T10:19:26;1.15;;;0.82;;
46399;SDS011;32104;50.838;4.388;2022-09-01T10:21:54;0.40;;;0.40;;
46399;SDS011;32104;50.838;4.388;2022-09-01T10:24:31;0.40;;;0.40;;
46399;SDS011;32104;50.838;4.388;2022-09-01T10:28:04;0.40;;;0.40;;
46399;SDS011;32104;50.838;4.388;2022-09-01T10:30:05;0.68;;;0.40;;
46399;SDS011;32104;50.838;4.388;2022-09-01T10:32:41;0.43;;;0.43;;
46399;SDS011;32104;50.838;4.388;2022-09-01T10:35:21;0.93;;;0.75;;
46399;SDS011;32104;50.838;4.388;2022-09-01T10:37:50;0.40;;;0.40;;
46399;SDS011;32104;50.838;4.388;2022-09-01T10:40:39;1.08;;;0.32;;
46399;SDS011;32104;50.838;4.388;2022-09-01T10:46:06;1.77;;;0.40;;
46399;SDS011;32104;50.838;4.388;2022-09-01T10:48:38;1.40;;;0.30;;
46399;SDS011;32104;50.838;4.388;2022-09-01T10:59:06;0.40;;;0.30;;
46399;SDS011;32104;50.838;4.388;2022-09-01T11:09:46;1.52;;;0.35;;
46399;SDS011;32104;50.838;4.388;2022-09-01T11:23:29;1.35;;;0.43;;
46399;SDS011;32104;50.838;4.388;2022-09-01T11:25:59;3.88;;;0.50;;
46399;SDS011;32104;50.838;4.388;2022-09-01T11:36:26;2.47;;;0.75;;
46399;SDS011;32104;50.838;4.388;2022-09-01T11:38:58;0.98;;;0.40;;
46399;SDS011;32104;50.838;4.388;2022-09-01T11:41:31;3.10;;;0.40;;
46399;SDS011;32104;50.838;4.388;2022-09-01T11:44:27;0.50;;;0.40;;
46399;SDS011;32104;50.838;4.388;2022-09-01T11:47:04;0.57;;;0.40;;
46399;SDS011;32104;50.838;4.388;2022-09-01T11:52:31;2.25;;;0.40;;
46399;SDS011;32104;50.838;4.388;2022-09-01T11:55:00;1.90;;;0.55;;
46399;SDS011;32104;50.838;4.388;2022-09-01T11:57:28;1.95;;;0.40;;
46399;SDS011;32104;50.838;4.388;2022-09-01T11:59:54;0.50;;;0.50;;
46399;SDS011;32104;50.838;4.388;2022-09-01T12:02:24;0.93;;;0.52;;
46399;SDS011;32104;50.838;4.388;2022-09-01T12:04:50;0.60;;;0.50;;
46399;SDS011;32104;50.838;4.388;2022-09-01T12:07:24;0.60;;;0.40;;
46399;SDS011;32104;50.838;4.388;2022-09-01T12:09:54;0.40;;;0.40;;
46399;SDS011;32104;50.838;4.388;2022-09-01T12:12:28;1.20;;;0.40;;
46399;SDS011;32104;50.838;4.388;2022-09-01T12:15:07;2.15;;;0.40;;
46399;SDS011;32104;50.838;4.388;2022-09-01T12:17:41;1.10;;;0.52;;
46399;SDS011;32104;50.838;4.388;2022-09-01T12:20:23;2.97;;;0.30;;
46399;SDS011;32104;50.838;4.388;2022-09-01T12:22:50;3.22;;;0.52;;
46399;SDS011;32104;50.838;4.388;2022-09-01T12:25:20;2.03;;;0.40;;
46399;SDS011;32104;50.838;4.388;2022-09-01T12:28:01;1.77;;;0.65;;
46399;SDS011;32104;50.838;4.388;2022-09-01T12:30:28;0.85;;;0.40;;
46399;SDS011;32104;50.838;4.388;2022-09-01T12:33:01;0.77;;;0.30;;
46399;SDS011;32104;50.838;4.388;2022-09-01T12:35:29;3.05;;;0.47;;
46399;SDS011;32104;50.838;4.388;2022-09-01T12:40:52;1.80;;;0.32;;
46399;SDS011;32104;50.838;4.388;2022-09-01T12:43:33;2.13;;;0.85;;
46399;SDS011;32104;50.838;4.388;2022-09-01T12:46:07;0.73;;;0.40;;
46399;SDS011;32104;50.838;4.388;2022-09-01T12:48:37;3.80;;;0.40;;
46399;SDS011;32104;50.838;4.388;2022-09-01T12:51:18;1.13;;;0.40;;
46399;SDS011;32104;50.838;4.388;2022-09-01T12:54:20;0.45;;;0.45;;
46399;SDS011;32104;50.838;4.388;2022-09-01T12:56:45;4.05;;;0.47;;
46399;SDS011;32104;50.838;4.388;2022-09-01T12:59:19;1.25;;;0.45;;
46399;SDS011;32104;50.838;4.388;2022-09-01T13:01:47;0.40;;;0.40;;
46399;SDS011;32104;50.838;4.388;2022-09-01T13:06:45;0.77;;;0.40;;
46399;SDS011;32104;50.838;4.388;2022-09-01T13:09:11;0.70;;;0.32;;
46399;SDS011;32104;50.838;4.388;2022-09-01T13:11:37;0.82;;;0.47;;
46399;SDS011;32104;50.838;4.388;2022-09-01T13:14:03;1.30;;;0.50;;
46399;SDS011;32104;50.838;4.388;2022-09-01T13:16:31;0.30;;;0.30;;
46399;SDS011;32104;50.838;4.388;2022-09-01T13:18:57;0.32;;;0.32;;
46399;SDS011;32104;50.838;4.388;2022-09-01T13:21:23;1.77;;;0.40;;
46399;SDS011;32104;50.838;4.388;2022-09-01T13:23:48;1.75;;;0.47;;
46399;SDS011;32104;50.838;4.388;2022-09-01T13:26:14;2.22;;;0.40;;
46399;SDS011;32104;50.838;4.388;2022-09-01T13:28:40;2.58;;;0.50;;
46399;SDS011;32104;50.838;4.388;2022-09-01T13:31:05;0.32;;;0.32;;
46399;SDS011;32104;50.838;4.388;2022-09-01T13:33:32;3.67;;;0.43;;
46399;SDS011;32104;50.838;4.388;2022-09-01T13:35:59;1.48;;;0.43;;
46399;SDS011;32104;50.838;4.388;2022-09-01T13:38:26;1.67;;;0.50;;
46399;SDS011;32104;50.838;4.388;2022-09-01T13:40:52;0.60;;;0.40;;
46399;SDS011;32104;50.838;4.388;2022-09-01T13:43:19;0.93;;;0.40;;
46399;SDS011;32104;50.838;4.388;2022-09-01T13:45:46;3.03;;;0.40;;
46399;SDS011;32104;50.838;4.388;2022-09-01T13:48:12;1.20;;;0.50;;
46399;SDS011;32104;50.838;4.388;2022-09-01T13:50:39;2.88;;;0.50;;
46399;SDS011;32104;50.838;4.388;2022-09-01T13:53:07;2.05;;;0.50;;
46399;SDS011;32104;50.838;4.388;2022-09-01T13:55:34;6.38;;;0.50;;
46399;SDS011;32104;50.838;4.388;2022-09-01T13:58:02;1.02;;;0.50;;
46399;SDS011;32104;50.838;4.388;2022-09-01T14:00:31;1.58;;;0.50;;
46399;SDS011;32104;50.838;4.388;2022-09-01T14:03:01;0.70;;;0.40;;
46399;SDS011;32104;50.838;4.388;2022-09-01T14:05:30;2.30;;;0.40;;
46399;SDS011;32104;50.838;4.388;2022-09-01T14:07:58;1.38;;;0.60;;
46399;SDS011;32104;50.838;4.388;2022-09-01T14:10:26;0.70;;;0.40;;
46399;SDS011;32104;50.838;4.388;2022-09-01T14:12:53;0.82;;;0.40;;
46399;SDS011;32104;50.838;4.388;2022-09-01T14:15:19;0.93;;;0.40;;
46399;SDS011;32104;50.838;4.388;2022-09-01T14:17:47;0.55;;;0.40;;
46399;SDS011;32104;50.838;4.388;2022-09-01T14:20:18;0.77;;;0.45;;
46399;SDS011;32104;50.838;4.388;2022-09-01T14:22:46;0.75;;;0.50;;
46399;SDS011;32104;50.838;4.388;2022-09-01T14:25:12;0.50;;;0.50;;
46399;SDS011;32104;50.838;4.388;2022-09-01T14:27:40;2.55;;;0.50;;
46399;SDS011;32104;50.838;4.388;2022-09-01T14:30:10;1.95;;;0.35;;
46399;SDS011;32104;50.838;4.388;2022-09-01T14:32:39;2.78;;;0.40;;
46399;SDS011;32104;50.838;4.388;2022-09-01T14:35:04;0.52;;;0.40;;
46399;SDS011;32104;50.838;4.388;2022-09-01T14:37:32;2.55;;;0.40;;
46399;SDS011;32104;50.838;4.388;2022-09-01T14:39:59;0.40;;;0.40;;
46399;SDS011;32104;50.838;4.388;2022-09-01T14:42:24;0.50;;;0.40;;
46399;SDS011;32104;50.838;4.388;2022-09-01T14:44:54;1.50;;;0.40;;
46399;SDS011;32104;50.838;4.388;2022-09-01T14:47:20;1.13;;;0.40;;
46399;SDS011;32104;50.838;4.388;2022-09-01T14:49:50;3.33;;;0.55;;
46399;SDS011;32104;50.838;4.388;2022-09-01T14:52:17;0.60;;;0.40;;
46399;SDS011;32104;50.838;4.388;2022-09-01T14:54:43;0.30;;;0.30;;
46399;SDS011;32104;50.838;4.388;2022-09-01T14:57:09;0.30;;;0.30;;
46399;SDS011;32104;50.838;4.388;2022-09-01T14:59:35;2.25;;;0.43;;
46399;SDS011;32104;50.838;4.388;2022-09-01T15:02:01;0.30;;;0.30;;
46399;SDS011;32104;50.838;4.388;2022-09-01T15:04:27;0.70;;;0.57;;
46399;SDS011;32104;50.838;4.388;2022-09-01T15:06:53;4.30;;;0.75;;
46399;SDS011;32104;50.838;4.388;2022-09-01T15:09:19;0.63;;;0.47;;
46399;SDS011;32104;50.838;4.388;2022-09-01T15:11:45;0.47;;;0.30;;
46399;SDS011;32104;50.838;4.388;2022-09-01T15:14:11;4.38;;;0.43;;
46399;SDS011;32104;50.838;4.388;2022-09-01T15:16:37;0.40;;;0.30;;
46399;SDS011;32104;50.838;4.388;2022-09-01T15:19:09;1.70;;;0.40;;
46399;SDS011;32104;50.838;4.388;2022-09-01T15:21:36;0.55;;;0.35;;
46399;SDS011;32104;50.838;4.388;2022-09-01T15:24:03;0.30;;;0.30;;
46399;SDS011;32104;50.838;4.388;2022-09-01T15:26:30;0.63;;;0.40;;
46399;SDS011;32104;50.838;4.388;2022-09-01T15:28:57;0.30;;;0.30;;
46399;SDS011;32104;50.838;4.388;2022-09-01T15:31:24;2.70;;;0.40;;
46399;SDS011;32104;50.838;4.388;2022-09-01T15:33:54;3.92;;;0.30;;
46399;SDS011;32104;50.838;4.388;2022-09-01T15:36:21;0.20;;;0.20;;
46399;SDS011;32104;50.838;4.388;2022-09-01T15:38:49;1.45;;;0.30;;
46399;SDS011;32104;50.838;4.388;2022-09-01T15:43:49;1.92;;;0.40;;
46399;SDS011;32104;50.838;4.388;2022-09-01T15:46:15;1.98;;;0.30;;
46399;SDS011;32104;50.838;4.388;2022-09-01T15:48:42;0.82;;;0.40;;
46399;SDS011;32104;50.838;4.388;2022-09-01T15:53:50;1.67;;;0.30;;
46399;SDS011;32104;50.838;4.388;2022-09-01T15:56:18;1.35;;;0.40;;
46399;SDS011;32104;50.838;4.388;2022-09-01T15:58:44;1.33;;;0.30;;
46399;SDS011;32104;50.838;4.388;2022-09-01T16:01:11;2.78;;;0.30;;
46399;SDS011;32104;50.838;4.388;2022-09-01T16:03:37;2.38;;;0.25;;
46399;SDS011;32104;50.838;4.388;2022-09-01T16:06:03;1.35;;;0.30;;
46399;SDS011;32104;50.838;4.388;2022-09-01T16:08:30;0.30;;;0.20;;
46399;SDS011;32104;50.838;4.388;2022-09-01T16:10:56;1.67;;;0.38;;
46399;SDS011;32104;50.838;4.388;2022-09-01T16:13:22;0.68;;;0.30;;
46399;SDS011;32104;50.838;4.388;2022-09-01T16:18:52;6.75;;;0.30;;
46399;SDS011;32104;50.838;4.388;2022-09-01T16:24:23;1.92;;;0.40;;
46399;SDS011;32104;50.838;4.388;2022-09-01T16:26:49;0.32;;;0.30;;
46399;SDS011;32104;50.838;4.388;2022-09-01T16:29:18;0.63;;;0.40;;
46399;SDS011;32104;50.838;4.388;2022-09-01T16:31:53;0.40;;;0.30;;
46399;SDS011;32104;50.838;4.388;2022-09-01T16:34:20;0.35;;;0.30;;
46399;SDS011;32104;50.838;4.388;2022-09-01T16:37:03;0.40;;;0.30;;
46399;SDS011;32104;50.838;4.388;2022-09-01T16:39:45;1.48;;;0.50;;
46399;SDS011;32104;50.838;4.388;2022-09-01T16:45:24;0.40;;;0.40;;
46399;SDS011;32104;50.838;4.388;2022-09-01T16:52:32;1.95;;;0.38;;